sensor_id;sensor_type;location;lat;lon;timestamp;pressure;altitude;pressure_sealevel;temperature;humidity
31044;BME280;17710;52.520;13.352;2023-03-03T00:01:08;101987.78;;;6.57;54.58
31044;BME280;17710;52.520;13.352;2023-03-03T00:03:34;101995.69;;;6.42;55.13
31044;BME280;17710;52.520;13.352;2023-03-03T00:06:02;102000.03;;;6.40;54.87
31044;BME280;17710;52.520;13.352;2023-03-03T00:08:29;101998.25;;;6.31;55.00
31044;BME280;17710;52.520;13.352;2023-03-03T00:10:56;101998.28;;;6.28;54.74
31044;BME280;17710;52.520;13.352;2023-03-03T00:13:26;102003.53;;;6.39;54.44
31044;BME280;17710;52.520;13.352;2023-03-03T00:16:09;102000.91;;;6.39;54.81
31044;BME280;17710;52.520;13.352;2023-03-03T00:18:40;101993.03;;;6.57;54.73
31044;BME280;17710;52.520;13.352;2023-03-03T00:21:18;101986.94;;;6.72;54.15
31044;BME280;17710;52.520;13.352;2023-03-03T00:23:48;101996.56;;;6.85;53.56
31044;BME280;17710;52.520;13.352;2023-03-03T00:26:19;101986.03;;;6.96;52.95
31044;BME280;17710;52.520;13.352;2023-03-03T00:28:48;101980.81;;;6.65;53.88
31044;BME280;17710;52.520;13.352;2023-03-03T00:31:17;101973.81;;;6.63;53.92
31044;BME280;17710;52.520;13.352;2023-03-03T00:33:47;101978.19;;;6.56;54.05
31044;BME280;17710;52.520;13.352;2023-03-03T00:36:29;101972.81;;;5.98;55.76
31044;BME280;17710;52.520;13.352;2023-03-03T00:38:59;101988.59;;;6.02;55.74
31044;BME280;17710;52.520;13.352;2023-03-03T00:41:36;101987.69;;;5.98;56.19
31044;BME280;17710;52.520;13.352;2023-03-03T00:44:31;101970.22;;;5.97;56.56
31044;BME280;17710;52.520;13.352;2023-03-03T00:47:16;101977.22;;;6.01;56.41
31044;BME280;17710;52.520;13.352;2023-03-03T00:49:49;101969.38;;;6.21;55.67
31044;BME280;17710;52.520;13.352;2023-03-03T00:52:17;101972.06;;;6.42;55.45
31044;BME280;17710;52.520;13.352;2023-03-03T00:54:44;101972.06;;;6.69;54.23
31044;BME280;17710;52.520;13.352;2023-03-03T00:57:11;101969.41;;;6.71;53.53
31044;BME280;17710;52.520;13.352;2023-03-03T00:59:38;101966.78;;;6.59;54.08
31044;BME280;17710;52.520;13.352;2023-03-03T01:02:06;101965.06;;;6.61;53.79
31044;BME280;17710;52.520;13.352;2023-03-03T01:04:32;101963.31;;;6.61;53.76
31044;BME280;17710;52.520;13.352;2023-03-03T01:06:59;101953.66;;;6.63;53.82
31044;BME280;17710;52.520;13.352;2023-03-03T01:09:26;101951.03;;;6.59;54.09
31044;BME280;17710;52.520;13.352;2023-03-03T01:11:53;101951.06;;;6.62;54.36
31044;BME280;17710;52.520;13.352;2023-03-03T01:14:20;101964.16;;;6.72;53.98
31044;BME280;17710;52.520;13.352;2023-03-03T01:16:47;101958.91;;;6.63;53.69
31044;BME280;17710;52.520;13.352;2023-03-03T01:19:15;101962.41;;;6.35;54.69
31044;BME280;17710;52.520;13.352;2023-03-03T01:21:42;101955.41;;;6.28;55.38
31044;BME280;17710;52.520;13.352;2023-03-03T01:24:08;101957.16;;;6.59;54.36
31044;BME280;17710;52.520;13.352;2023-03-03T01:26:35;101951.91;;;6.65;54.00
31044;BME280;17710;52.520;13.352;2023-03-03T01:29:01;101950.16;;;6.60;54.44
31044;BME280;17710;52.520;13.352;2023-03-03T01:31:27;101949.28;;;6.76;54.03
31044;BME280;17710;52.520;13.352;2023-03-03T01:33:54;101943.16;;;6.72;54.05
31044;BME280;17710;52.520;13.352;2023-03-03T01:36:23;101942.28;;;6.69;53.89
31044;BME280;17710;52.520;13.352;2023-03-03T01:38:50;101936.16;;;6.73;53.94
31044;BME280;17710;52.520;13.352;2023-03-03T01:41:16;101931.72;;;6.00;55.59
31044;BME280;17710;52.520;13.352;2023-03-03T01:43:44;101930.75;;;5.74;57.18
31044;BME280;17710;52.520;13.352;2023-03-03T01:46:40;101925.50;;;5.70;57.02
31044;BME280;17710;52.520;13.352;2023-03-03T01:49:13;101929.69;;;5.24;58.76
31044;BME280;17710;52.520;13.352;2023-03-03T01:51:47;101921.03;;;5.43;58.10
31044;BME280;17710;52.520;13.352;2023-03-03T01:54:18;101917.41;;;5.19;58.84
31044;BME280;17710;52.520;13.352;2023-03-03T01:56:46;101920.81;;;4.99;59.97
31044;BME280;17710;52.520;13.352;2023-03-03T01:59:16;101927.16;;;5.42;58.59
31044;BME280;17710;52.520;13.352;2023-03-03T02:01:44;101926.22;;;5.29;59.19
31044;BME280;17710;52.520;13.352;2023-03-03T02:04:11;101922.91;;;5.80;58.00
31044;BME280;17710;52.520;13.352;2023-03-03T02:06:40;101926.44;;;5.91;57.49
31044;BME280;17710;52.520;13.352;2023-03-03T02:09:14;101924.63;;;5.68;57.88
31044;BME280;17710;52.520;13.352;2023-03-03T02:11:43;101933.47;;;5.94;57.13
31044;BME280;17710;52.520;13.352;2023-03-03T02:14:10;101938.75;;;6.24;56.28
31044;BME280;17710;52.520;13.352;2023-03-03T02:16:37;101934.38;;;6.10;56.59
31044;BME280;17710;52.520;13.352;2023-03-03T02:19:08;101938.75;;;6.02;56.80
31044;BME280;17710;52.520;13.352;2023-03-03T02:21:38;101937.75;;;5.75;56.61
31044;BME280;17710;52.520;13.352;2023-03-03T02:24:08;101948.19;;;5.60;57.54
31044;BME280;17710;52.520;13.352;2023-03-03T02:26:40;101948.34;;;6.01;56.82
31044;BME280;17710;52.520;13.352;2023-03-03T02:29:08;101939.59;;;5.97;56.43
31044;BME280;17710;52.520;13.352;2023-03-03T02:31:36;101939.50;;;5.79;57.00
31044;BME280;17710;52.520;13.352;2023-03-03T02:34:03;101949.91;;;5.58;57.88
31044;BME280;17710;52.520;13.352;2023-03-03T02:36:32;101943.00;;;5.69;57.74
31044;BME280;17710;52.520;13.352;2023-03-03T02:39:02;101941.13;;;5.47;58.11
31044;BME280;17710;52.520;13.352;2023-03-03T02:41:32;101942.75;;;5.20;58.95
31044;BME280;17710;52.520;13.352;2023-03-03T02:44:03;101937.59;;;5.36;59.07
31044;BME280;17710;52.520;13.352;2023-03-03T02:46:32;101941.03;;;5.22;59.39
31044;BME280;17710;52.520;13.352;2023-03-03T02:48:59;101948.06;;;5.34;58.81
31044;BME280;17710;52.520;13.352;2023-03-03T02:51:26;101947.09;;;5.15;59.28
31044;BME280;17710;52.520;13.352;2023-03-03T02:53:53;101944.50;;;5.20;59.45
31044;BME280;17710;52.520;13.352;2023-03-03T02:56:19;101933.97;;;5.09;59.38
31044;BME280;17710;52.520;13.352;2023-03-03T02:58:45;101942.72;;;5.14;59.70
31044;BME280;17710;52.520;13.352;2023-03-03T03:01:13;101938.56;;;5.56;58.70
31044;BME280;17710;52.520;13.352;2023-03-03T03:03:40;101949.13;;;5.80;58.19
31044;BME280;17710;52.520;13.352;2023-03-03T03:06:08;101951.75;;;5.74;57.18
31044;BME280;17710;52.520;13.352;2023-03-03T03:08:35;101952.50;;;5.47;58.91
31044;BME280;17710;52.520;13.352;2023-03-03T03:11:01;101952.44;;;5.35;59.18
31044;BME280;17710;52.520;13.352;2023-03-03T03:13:28;101949.00;;;5.51;58.47
31044;BME280;17710;52.520;13.352;2023-03-03T03:15:55;101958.66;;;5.54;58.35
31044;BME280;17710;52.520;13.352;2023-03-03T03:18:22;101959.50;;;5.53;58.65
31044;BME280;17710;52.520;13.352;2023-03-03T03:20:49;101959.50;;;5.44;58.47
31044;BME280;17710;52.520;13.352;2023-03-03T03:23:16;101974.19;;;5.20;60.18
31044;BME280;17710;52.520;13.352;2023-03-03T03:25:42;101975.97;;;5.21;60.18
31044;BME280;17710;52.520;13.352;2023-03-03T03:28:10;101970.53;;;4.94;60.85
31044;BME280;17710;52.520;13.352;2023-03-03T03:30:37;101965.25;;;4.88;60.97
31044;BME280;17710;52.520;13.352;2023-03-03T03:33:04;101976.91;;;5.39;59.74
31044;BME280;17710;52.520;13.352;2023-03-03T03:35:33;101976.19;;;5.67;58.35
31044;BME280;17710;52.520;13.352;2023-03-03T03:38:00;101978.94;;;5.94;57.40
31044;BME280;17710;52.520;13.352;2023-03-03T03:40:26;101980.75;;;6.09;57.08
31044;BME280;17710;52.520;13.352;2023-03-03T03:42:53;101958.88;;;6.10;57.23
31044;BME280;17710;52.520;13.352;2023-03-03T03:45:20;101960.56;;;5.90;56.90
31044;BME280;17710;52.520;13.352;2023-03-03T03:47:46;101965.63;;;5.44;58.45
31044;BME280;17710;52.520;13.352;2023-03-03T03:50:13;101965.50;;;5.25;59.63
31044;BME280;17710;52.520;13.352;2023-03-03T03:52:41;101953.97;;;4.95;61.03
31044;BME280;17710;52.520;13.352;2023-03-03T03:55:09;101960.97;;;4.99;60.54
31044;BME280;17710;52.520;13.352;2023-03-03T03:57:35;101957.50;;;5.06;60.50
31044;BME280;17710;52.520;13.352;2023-03-03T04:00:02;101951.41;;;5.06;60.11
31044;BME280;17710;52.520;13.352;2023-03-03T04:02:29;101956.66;;;5.04;60.56
31044;BME280;17710;52.520;13.352;2023-03-03T04:04:55;101946.03;;;4.86;60.55
31044;BME280;17710;52.520;13.352;2023-03-03T04:07:22;101943.44;;;4.89;61.38
31044;BME280;17710;52.520;13.352;2023-03-03T04:09:50;101936.56;;;5.08;60.89
31044;BME280;17710;52.520;13.352;2023-03-03T04:12:16;101934.84;;;5.13;60.95
31044;BME280;17710;52.520;13.352;2023-03-03T04:14:43;101933.16;;;5.18;60.24
31044;BME280;17710;52.520;13.352;2023-03-03T04:17:15;101935.75;;;5.19;60.35
31044;BME280;17710;52.520;13.352;2023-03-03T04:19:42;101929.59;;;5.05;60.93
31044;BME280;17710;52.520;13.352;2023-03-03T04:22:09;101938.16;;;4.86;61.09
31044;BME280;17710;52.520;13.352;2023-03-03T04:24:36;101939.94;;;4.86;60.90
31044;BME280;17710;52.520;13.352;2023-03-03T04:27:04;101934.94;;;5.33;60.23
31044;BME280;17710;52.520;13.352;2023-03-03T04:29:30;101933.28;;;5.51;58.12
31044;BME280;17710;52.520;13.352;2023-03-03T04:31:57;101930.38;;;4.92;59.49
31044;BME280;17710;52.520;13.352;2023-03-03T04:34:23;101930.38;;;4.95;59.59
31044;BME280;17710;52.520;13.352;2023-03-03T04:36:50;101932.09;;;4.86;60.64
31044;BME280;17710;52.520;13.352;2023-03-03T04:39:17;101924.22;;;4.89;61.13
31044;BME280;17710;52.520;13.352;2023-03-03T04:41:43;101920.56;;;4.64;61.95
31044;BME280;17710;52.520;13.352;2023-03-03T04:44:11;101926.72;;;4.69;61.54
31044;BME280;17710;52.520;13.352;2023-03-03T04:46:38;101925.72;;;4.53;62.35
31044;BME280;17710;52.520;13.352;2023-03-03T04:49:04;101939.78;;;4.64;62.46
31044;BME280;17710;52.520;13.352;2023-03-03T04:51:34;101934.22;;;4.28;63.52
31044;BME280;17710;52.520;13.352;2023-03-03T04:54:01;101926.56;;;4.51;63.17
31044;BME280;17710;52.520;13.352;2023-03-03T04:56:29;101933.66;;;4.64;62.45
31044;BME280;17710;52.520;13.352;2023-03-03T04:58:55;101937.31;;;4.87;62.38
31044;BME280;17710;52.520;13.352;2023-03-03T05:01:23;101926.91;;;4.99;61.50
31044;BME280;17710;52.520;13.352;2023-03-03T05:03:50;101931.84;;;4.57;62.26
31044;BME280;17710;52.520;13.352;2023-03-03T05:06:16;101935.25;;;4.47;62.88
31044;BME280;17710;52.520;13.352;2023-03-03T05:08:43;101929.41;;;4.81;62.55
31044;BME280;17710;52.520;13.352;2023-03-03T05:11:09;101920.63;;;4.73;62.42
31044;BME280;17710;52.520;13.352;2023-03-03T05:13:36;101925.06;;;4.81;61.95
31044;BME280;17710;52.520;13.352;2023-03-03T05:16:03;101912.97;;;5.06;61.46
31044;BME280;17710;52.520;13.352;2023-03-03T05:18:31;101919.88;;;4.91;61.44
31044;BME280;17710;52.520;13.352;2023-03-03T05:20:58;101912.00;;;4.88;62.15
31044;BME280;17710;52.520;13.352;2023-03-03T05:23:25;101907.63;;;4.88;62.29
31044;BME280;17710;52.520;13.352;2023-03-03T05:25:51;101911.97;;;4.86;62.38
31044;BME280;17710;52.520;13.352;2023-03-03T05:28:17;101918.13;;;4.88;62.22
31044;BME280;17710;52.520;13.352;2023-03-03T05:30:44;101912.06;;;4.95;61.93
31044;BME280;17710;52.520;13.352;2023-03-03T05:33:12;101921.72;;;5.08;61.55
31044;BME280;17710;52.520;13.352;2023-03-03T05:35:41;101933.81;;;4.85;62.30
31044;BME280;17710;52.520;13.352;2023-03-03T05:38:08;101938.38;;;5.16;61.57
31044;BME280;17710;52.520;13.352;2023-03-03T05:40:35;101940.19;;;5.30;60.76
31044;BME280;17710;52.520;13.352;2023-03-03T05:43:03;101938.41;;;5.22;60.89
31044;BME280;17710;52.520;13.352;2023-03-03T05:45:29;101941.19;;;5.60;59.87
31044;BME280;17710;52.520;13.352;2023-03-03T05:47:56;101946.50;;;5.74;58.81
31044;BME280;17710;52.520;13.352;2023-03-03T05:50:22;101953.44;;;5.66;58.68
31044;BME280;17710;52.520;13.352;2023-03-03T05:52:51;101949.97;;;5.73;58.74
31044;BME280;17710;52.520;13.352;2023-03-03T05:55:18;101954.19;;;5.30;59.88
31044;BME280;17710;52.520;13.352;2023-03-03T05:57:44;101952.53;;;5.55;59.41
31044;BME280;17710;52.520;13.352;2023-03-03T06:00:13;101948.25;;;5.84;58.66
31044;BME280;17710;52.520;13.352;2023-03-03T06:02:40;101949.22;;;5.94;58.04
31044;BME280;17710;52.520;13.352;2023-03-03T06:05:07;101949.19;;;5.92;57.14
31044;BME280;17710;52.520;13.352;2023-03-03T06:07:34;101950.00;;;5.85;57.58
31044;BME280;17710;52.520;13.352;2023-03-03T06:10:04;101949.13;;;5.80;57.82
31044;BME280;17710;52.520;13.352;2023-03-03T06:12:30;101944.78;;;5.82;57.74
31044;BME280;17710;52.520;13.352;2023-03-03T06:14:57;101957.00;;;5.86;57.85
31044;BME280;17710;52.520;13.352;2023-03-03T06:17:23;101958.56;;;5.36;59.09
31044;BME280;17710;52.520;13.352;2023-03-03T06:22:37;101967.28;;;5.35;59.30
31044;BME280;17710;52.520;13.352;2023-03-03T06:25:07;101961.34;;;5.72;58.35
31044;BME280;17710;52.520;13.352;2023-03-03T06:27:33;101965.50;;;5.25;59.16
31044;BME280;17710;52.520;13.352;2023-03-03T06:30:00;101973.47;;;5.52;58.52
31044;BME280;17710;52.520;13.352;2023-03-03T06:32:26;101974.28;;;5.39;58.86
31044;BME280;17710;52.520;13.352;2023-03-03T06:34:52;101972.69;;;5.62;58.89
31044;BME280;17710;52.520;13.352;2023-03-03T06:37:19;101968.28;;;5.59;58.51
31044;BME280;17710;52.520;13.352;2023-03-03T06:39:46;101964.72;;;5.44;59.03
31044;BME280;17710;52.520;13.352;2023-03-03T06:42:13;101972.59;;;5.51;59.41
31044;BME280;17710;52.520;13.352;2023-03-03T06:44:40;101972.53;;;5.35;59.23
31044;BME280;17710;52.520;13.352;2023-03-03T06:47:06;101974.91;;;4.94;60.49
31044;BME280;17710;52.520;13.352;2023-03-03T06:49:33;101983.44;;;4.65;61.20
31044;BME280;17710;52.520;13.352;2023-03-03T06:52:04;101976.38;;;4.60;61.79
31044;BME280;17710;52.520;13.352;2023-03-03T06:54:34;101975.78;;;4.91;61.69
31044;BME280;17710;52.520;13.352;2023-03-03T06:57:12;101989.97;;;5.24;60.71
31044;BME280;17710;52.520;13.352;2023-03-03T06:59:41;101990.09;;;5.48;59.67
31044;BME280;17710;52.520;13.352;2023-03-03T07:02:13;101995.44;;;5.69;58.52
31044;BME280;17710;52.520;13.352;2023-03-03T07:04:41;102003.34;;;5.81;58.03
31044;BME280;17710;52.520;13.352;2023-03-03T07:07:17;102007.72;;;5.81;58.83
31044;BME280;17710;52.520;13.352;2023-03-03T07:09:49;102000.41;;;5.17;60.11
31044;BME280;17710;52.520;13.352;2023-03-03T07:12:30;102006.53;;;5.22;nan
31044;BME280;17710;52.520;13.352;2023-03-03T07:15:12;102005.56;;;5.08;60.66
31044;BME280;17710;52.520;13.352;2023-03-03T07:17:43;102014.63;;;5.62;59.75
31044;BME280;17710;52.520;13.352;2023-03-03T07:20:18;102011.31;;;6.01;58.44
31044;BME280;17710;52.520;13.352;2023-03-03T07:22:45;102014.78;;;5.89;58.54
31044;BME280;17710;52.520;13.352;2023-03-03T07:25:19;102014.44;;;5.29;59.96
31044;BME280;17710;52.520;13.352;2023-03-03T07:27:46;102011.09;;;5.54;59.31
31044;BME280;17710;52.520;13.352;2023-03-03T07:30:23;102018.28;;;5.88;58.25
31044;BME280;17710;52.520;13.352;2023-03-03T07:32:51;102013.84;;;5.83;58.59
31044;BME280;17710;52.520;13.352;2023-03-03T07:35:29;102019.66;;;5.27;59.53
31044;BME280;17710;52.520;13.352;2023-03-03T07:38:00;102025.59;;;5.00;60.85
31044;BME280;17710;52.520;13.352;2023-03-03T07:40:34;102023.38;;;5.61;59.86
31044;BME280;17710;52.520;13.352;2023-03-03T07:46:01;102023.47;;;5.87;58.47
31044;BME280;17710;52.520;13.352;2023-03-03T07:48:30;102030.44;;;5.77;59.33
31044;BME280;17710;52.520;13.352;2023-03-03T07:51:02;102032.31;;;5.99;58.26
31044;BME280;17710;52.520;13.352;2023-03-03T07:53:33;102035.00;;;6.21;57.76
31044;BME280;17710;52.520;13.352;2023-03-03T07:56:02;102045.53;;;6.27;57.31
31044;BME280;17710;52.520;13.352;2023-03-03T07:58:37;102034.09;;;6.07;58.24
31044;BME280;17710;52.520;13.352;2023-03-03T08:01:34;102037.50;;;5.87;58.80
31044;BME280;17710;52.520;13.352;2023-03-03T08:04:09;102033.97;;;5.82;58.57
31044;BME280;17710;52.520;13.352;2023-03-03T08:06:43;102027.63;;;5.38;60.30
31044;BME280;17710;52.520;13.352;2023-03-03T08:12:28;102039.91;;;5.49;60.84
31044;BME280;17710;52.520;13.352;2023-03-03T08:15:00;102037.25;;;5.45;60.88
31044;BME280;17710;52.520;13.352;2023-03-03T08:17:34;102026.88;;;5.66;59.99
31044;BME280;17710;52.520;13.352;2023-03-03T08:20:10;102019.03;;;5.72;59.77
31044;BME280;17710;52.520;13.352;2023-03-03T08:22:55;102032.16;;;5.72;60.16
31044;BME280;17710;52.520;13.352;2023-03-03T08:25:22;102027.66;;;5.44;60.74
31044;BME280;17710;52.520;13.352;2023-03-03T08:27:48;102026.81;;;5.51;60.65
31044;BME280;17710;52.520;13.352;2023-03-03T08:30:15;102031.13;;;5.46;60.90
31044;BME280;17710;52.520;13.352;2023-03-03T08:32:43;102025.91;;;5.49;60.83
31044;BME280;17710;52.520;13.352;2023-03-03T08:35:09;102031.31;;;5.75;60.40
31044;BME280;17710;52.520;13.352;2023-03-03T08:37:36;102026.94;;;5.75;60.31
31044;BME280;17710;52.520;13.352;2023-03-03T08:40:03;102032.19;;;5.84;59.57
31044;BME280;17710;52.520;13.352;2023-03-03T08:42:30;102028.78;;;5.94;59.33
31044;BME280;17710;52.520;13.352;2023-03-03T08:44:57;102037.31;;;5.55;60.03
31044;BME280;17710;52.520;13.352;2023-03-03T08:47:24;102039.03;;;5.49;61.01
31044;BME280;17710;52.520;13.352;2023-03-03T08:49:52;102040.66;;;5.32;61.34
31044;BME280;17710;52.520;13.352;2023-03-03T08:52:18;102033.81;;;5.50;61.15
31044;BME280;17710;52.520;13.352;2023-03-03T08:54:45;102043.44;;;5.54;60.98
31044;BME280;17710;52.520;13.352;2023-03-03T08:57:11;102039.19;;;5.85;59.59
31044;BME280;17710;52.520;13.352;2023-03-03T08:59:38;102039.34;;;6.13;59.02
31044;BME280;17710;52.520;13.352;2023-03-03T09:02:05;102039.06;;;5.58;59.88
31044;BME280;17710;52.520;13.352;2023-03-03T09:04:32;102033.78;;;5.44;60.58
31044;BME280;17710;52.520;13.352;2023-03-03T09:07:00;102038.03;;;5.29;61.43
31044;BME280;17710;52.520;13.352;2023-03-03T09:09:27;102029.28;;;5.28;61.97
31044;BME280;17710;52.520;13.352;2023-03-03T09:11:57;102018.03;;;5.43;61.41
31044;BME280;17710;52.520;13.352;2023-03-03T09:14:27;102021.81;;;5.96;60.11
31044;BME280;17710;52.520;13.352;2023-03-03T09:16:55;102026.25;;;6.20;59.00
31044;BME280;17710;52.520;13.352;2023-03-03T09:19:25;102020.16;;;6.38;58.61
31044;BME280;17710;52.520;13.352;2023-03-03T09:21:53;102020.16;;;6.44;58.00
31044;BME280;17710;52.520;13.352;2023-03-03T09:24:27;102014.06;;;6.57;58.37
31044;BME280;17710;52.520;13.352;2023-03-03T09:26:53;102022.81;;;6.52;57.34
31044;BME280;17710;52.520;13.352;2023-03-03T09:29:25;102016.66;;;6.39;57.89
31044;BME280;17710;52.520;13.352;2023-03-03T09:31:54;102026.22;;;6.08;58.20
31044;BME280;17710;52.520;13.352;2023-03-03T09:34:24;102023.59;;;6.07;58.78
31044;BME280;17710;52.520;13.352;2023-03-03T09:36:52;102028.69;;;5.76;59.42
31044;BME280;17710;52.520;13.352;2023-03-03T09:39:22;102031.31;;;5.79;59.36
31044;BME280;17710;52.520;13.352;2023-03-03T09:42:18;102030.63;;;6.20;58.52
31044;BME280;17710;52.520;13.352;2023-03-03T09:45:07;102038.56;;;6.47;58.28
31044;BME280;17710;52.520;13.352;2023-03-03T09:47:43;102036.78;;;6.32;57.72
31044;BME280;17710;52.520;13.352;2023-03-03T09:50:24;102033.28;;;6.29;58.42
31044;BME280;17710;52.520;13.352;2023-03-03T09:53:01;102035.88;;;6.26;58.57
31044;BME280;17710;52.520;13.352;2023-03-03T09:55:39;102028.00;;;6.20;58.26
31044;BME280;17710;52.520;13.352;2023-03-03T09:58:25;102031.34;;;5.84;59.82
31044;BME280;17710;52.520;13.352;2023-03-03T10:01:02;102031.53;;;6.38;59.02
31044;BME280;17710;52.520;13.352;2023-03-03T10:03:45;102032.44;;;6.65;57.83
31044;BME280;17710;52.520;13.352;2023-03-03T10:06:21;102023.72;;;6.55;57.74
31044;BME280;17710;52.520;13.352;2023-03-03T10:09:03;102034.22;;;6.86;56.95
31044;BME280;17710;52.520;13.352;2023-03-03T10:11:37;102029.84;;;6.50;57.51
31044;BME280;17710;52.520;13.352;2023-03-03T10:14:22;102033.31;;;6.52;57.67
31044;BME280;17710;52.520;13.352;2023-03-03T10:19:59;102030.72;;;6.65;57.63
31044;BME280;17710;52.520;13.352;2023-03-03T10:22:37;102021.94;;;6.51;57.52
31044;BME280;17710;52.520;13.352;2023-03-03T10:25:19;102021.94;;;6.51;57.66
31044;BME280;17710;52.520;13.352;2023-03-03T10:27:55;102021.97;;;6.82;57.02
31044;BME280;17710;52.520;13.352;2023-03-03T10:30:35;102028.94;;;7.22;56.18
31044;BME280;17710;52.520;13.352;2023-03-03T10:33:10;102022.75;;;7.46;55.55
31044;BME280;17710;52.520;13.352;2023-03-03T10:36:11;102019.25;;;7.47;54.87
31044;BME280;17710;52.520;13.352;2023-03-03T10:38:59;102026.25;;;7.42;55.14
31044;BME280;17710;52.520;13.352;2023-03-03T10:41:42;102026.34;;;6.83;57.33
31044;BME280;17710;52.520;13.352;2023-03-03T10:44:31;102027.22;;;6.97;57.16
31044;BME280;17710;52.520;13.352;2023-03-03T10:47:27;102025.44;;;6.96;56.96
31044;BME280;17710;52.520;13.352;2023-03-03T10:50:04;102022.81;;;7.28;56.33
31044;BME280;17710;52.520;13.352;2023-03-03T10:52:43;102031.53;;;7.36;55.53
31044;BME280;17710;52.520;13.352;2023-03-03T10:55:19;102026.25;;;7.51;55.67
31044;BME280;17710;52.520;13.352;2023-03-03T10:57:57;102030.63;;;7.50;55.76
31044;BME280;17710;52.520;13.352;2023-03-03T11:00:30;102035.03;;;7.36;56.37
31044;BME280;17710;52.520;13.352;2023-03-03T11:03:27;102031.50;;;7.57;56.11
31044;BME280;17710;52.520;13.352;2023-03-03T11:06:12;102033.34;;;7.11;57.05
31044;BME280;17710;52.520;13.352;2023-03-03T11:08:48;102028.03;;;7.31;57.09
31044;BME280;17710;52.520;13.352;2023-03-03T11:11:20;102034.22;;;6.92;58.11
31044;BME280;17710;52.520;13.352;2023-03-03T11:13:55;102021.94;;;7.16;58.36
31044;BME280;17710;52.520;13.352;2023-03-03T11:16:37;102028.97;;;6.93;58.12
31044;BME280;17710;52.520;13.352;2023-03-03T11:19:20;102022.81;;;7.15;58.25
31044;BME280;17710;52.520;13.352;2023-03-03T11:22:02;102022.72;;;7.59;56.72
31044;BME280;17710;52.520;13.352;2023-03-03T11:27:53;102010.34;;;7.83;55.83
31044;BME280;17710;52.520;13.352;2023-03-03T11:30:26;102019.16;;;7.80;55.91
31044;BME280;17710;52.520;13.352;2023-03-03T11:33:01;102025.38;;;7.59;56.68
31044;BME280;17710;52.520;13.352;2023-03-03T11:35:40;102028.88;;;7.54;56.69
31044;BME280;17710;52.520;13.352;2023-03-03T11:38:23;102025.13;;;8.17;55.03
31044;BME280;17710;52.520;13.352;2023-03-03T11:40:58;102019.81;;;8.25;54.57
31044;BME280;17710;52.520;13.352;2023-03-03T11:43:31;102009.16;;;8.48;54.23
31044;BME280;17710;52.520;13.352;2023-03-03T11:46:03;102013.66;;;8.33;54.26
31044;BME280;17710;52.520;13.352;2023-03-03T11:48:37;102014.41;;;8.51;53.85
31044;BME280;17710;52.520;13.352;2023-03-03T11:51:09;102018.72;;;8.61;53.33
31044;BME280;17710;52.520;13.352;2023-03-03T11:53:46;102019.63;;;8.58;53.53
31044;BME280;17710;52.520;13.352;2023-03-03T11:56:22;102010.16;;;8.31;54.50
31044;BME280;17710;52.520;13.352;2023-03-03T11:58:57;102008.38;;;8.33;54.24
31044;BME280;17710;52.520;13.352;2023-03-03T12:01:32;102000.34;;;8.52;54.18
31044;BME280;17710;52.520;13.352;2023-03-03T12:04:03;102002.19;;;8.39;54.05
31044;BME280;17710;52.520;13.352;2023-03-03T12:06:39;101992.56;;;8.29;54.65
31044;BME280;17710;52.520;13.352;2023-03-03T12:09:19;101979.50;;;8.11;55.07
31044;BME280;17710;52.520;13.352;2023-03-03T12:11:51;101981.13;;;8.37;54.25
31044;BME280;17710;52.520;13.352;2023-03-03T12:14:31;101976.88;;;8.08;55.46
31044;BME280;17710;52.520;13.352;2023-03-03T12:17:04;101976.72;;;8.41;54.53
31044;BME280;17710;52.520;13.352;2023-03-03T12:19:41;101967.91;;;8.45;54.37
31044;BME280;17710;52.520;13.352;2023-03-03T12:22:26;101972.28;;;8.48;54.55
31044;BME280;17710;52.520;13.352;2023-03-03T12:25:14;101957.44;;;8.37;54.74
31044;BME280;17710;52.520;13.352;2023-03-03T12:27:49;101956.56;;;8.29;55.01
31044;BME280;17710;52.520;13.352;2023-03-03T12:30:32;101954.81;;;8.36;54.61
31044;BME280;17710;52.520;13.352;2023-03-03T12:33:18;101953.81;;;8.52;54.33
31044;BME280;17710;52.520;13.352;2023-03-03T12:35:53;101948.28;;;8.81;53.75
31044;BME280;17710;52.520;13.352;2023-03-03T12:38:32;101950.19;;;8.62;54.50
31044;BME280;17710;52.520;13.352;2023-03-03T12:41:06;101946.44;;;8.89;53.72
31044;BME280;17710;52.520;13.352;2023-03-03T12:43:45;101949.09;;;8.89;53.49
31044;BME280;17710;52.520;13.352;2023-03-03T12:46:19;101951.06;;;8.63;53.70
31044;BME280;17710;52.520;13.352;2023-03-03T12:48:48;101947.53;;;8.67;53.84
31044;BME280;17710;52.520;13.352;2023-03-03T12:51:24;101942.31;;;8.61;54.23
31044;BME280;17710;52.520;13.352;2023-03-03T12:54:09;101950.09;;;8.73;53.83
31044;BME280;17710;52.520;13.352;2023-03-03T12:56:43;101940.47;;;8.69;53.91
31044;BME280;17710;52.520;13.352;2023-03-03T12:59:16;101940.81;;;8.26;54.96
31044;BME280;17710;52.520;13.352;2023-03-03T13:01:56;101935.72;;;7.97;56.18
31044;BME280;17710;52.520;13.352;2023-03-03T13:04:32;101938.38;;;7.93;56.75
31044;BME280;17710;52.520;13.352;2023-03-03T13:07:05;101935.47;;;8.37;55.44
31044;BME280;17710;52.520;13.352;2023-03-03T13:09:43;101929.34;;;8.35;55.38
31044;BME280;17710;52.520;13.352;2023-03-03T13:12:33;101934.66;;;8.26;55.55
31044;BME280;17710;52.520;13.352;2023-03-03T13:15:06;101923.84;;;8.64;54.72
31044;BME280;17710;52.520;13.352;2023-03-03T13:17:37;101914.00;;;8.84;53.87
31044;BME280;17710;52.520;13.352;2023-03-03T13:20:17;101916.28;;;9.17;52.60
31044;BME280;17710;52.520;13.352;2023-03-03T13:22:49;101916.22;;;8.24;54.36
31044;BME280;17710;52.520;13.352;2023-03-03T13:25:34;101909.97;;;8.42;55.14
31044;BME280;17710;52.520;13.352;2023-03-03T13:28:15;101914.31;;;8.49;54.96